Time;durP1;ratioP1;P1;durP2;ratioP2;P2;SDS_P1;SDS_P2;PMS_P1;PMS_P2;Temp;Humidity;BMP_temperature;BMP_pressure;BME280_temperature;BME280_humidity;BME280_pressure;Samples;Min_cycle;Max_cycle;Signal;HPM_P1;HPM_P2
2022/07/18 00:03:07;;;;;;;5.62;2.40;;;;;;;11.66;79.46;100008.14;4206193;83;21055;-83
2022/07/18 00:09:13;;;;;;;4.35;2.30;;;;;;;11.53;79.59;100017.03;4226859;83;21051;-83
2022/07/18 00:15:14;;;;;;;2.72;1.90;;;;;;;11.40;79.86;100007.91;4221785;83;21007;-83
2022/07/18 00:21:17;;;;;;;6.28;2.15;;;;;;;11.35;80.36;100010.91;4219970;83;20999;-83
2022/07/18 00:27:22;;;;;;;5.70;2.50;;;;;;;11.47;80.74;100017.09;4205900;83;21141;-83
2022/07/18 00:33:23;;;;;;;5.12;2.45;;;;;;;11.44;79.97;100020.55;4158314;84;21095;-83
2022/07/18 00:39:28;;;;;;;5.95;2.27;;;;;;;11.23;80.04;100017.27;4154316;84;21036;-83
2022/07/18 00:45:34;;;;;;;5.22;2.30;;;;;;;11.31;81.06;100025.89;4134622;84;21055;-86
2022/07/18 00:51:40;;;;;;;3.63;2.20;;;;;;;11.28;80.74;100029.91;4267735;81;21067;-83
2022/07/18 00:57:48;;;;;;;4.20;2.60;;;;;;;11.31;81.62;100028.64;4265069;81;21642;-82
2022/07/18 01:03:54;;;;;;;9.00;2.35;;;;;;;11.38;81.82;100021.97;4282719;80;21562;-83
2022/07/18 01:09:57;;;;;;;4.30;2.20;;;;;;;11.38;81.10;100015.69;4265695;81;21072;-83
2022/07/18 01:15:59;;;;;;;6.45;1.90;;;;;;;11.32;81.42;100009.69;4258388;81;21023;-83
2022/07/18 01:22:06;;;;;;;6.20;2.22;;;;;;;11.22;81.58;99997.88;4254363;82;21022;-83
2022/07/18 01:28:07;;;;;;;5.30;2.55;;;;;;;11.00;81.58;99997.94;4263072;81;22348;-83
2022/07/18 01:34:08;;;;;;;4.65;2.27;;;;;;;10.84;81.85;99989.47;4256454;81;21015;-82
2022/07/18 01:40:12;;;;;;;4.65;2.55;;;;;;;10.74;82.14;99992.75;4262736;81;21016;-83
2022/07/18 01:46:14;;;;;;;7.33;2.50;;;;;;;10.55;82.37;99990.70;4242071;81;21056;-82
2022/07/18 01:52:18;;;;;;;7.22;2.67;;;;;;;10.49;83.22;99986.59;4260136;81;21055;-82
2022/07/18 01:58:19;;;;;;;3.08;2.15;;;;;;;10.63;83.50;99992.45;4264129;81;21030;-82
2022/07/18 02:04:59;;;;;;;4.10;2.25;;;;;;;10.80;83.69;99982.56;4249948;81;21008;-82
2022/07/18 02:10:26;;;;;;;4.60;2.40;;;;;;;10.88;83.08;99979.42;4281107;81;21016;-83
2022/07/18 02:16:28;;;;;;;8.80;2.58;;;;;;;10.68;82.75;99979.09;4269468;81;20991;-83
2022/07/18 02:22:33;;;;;;;5.75;2.70;;;;;;;10.54;83.40;99982.83;4283337;81;21077;-82
2022/07/18 02:28:38;;;;;;;4.78;2.40;;;;;;;10.48;82.97;99983.65;4253786;81;22015;-84
2022/07/18 02:34:40;;;;;;;4.33;2.30;;;;;;;10.38;83.18;99973.78;4259825;81;21404;-82
2022/07/18 02:40:43;;;;;;;4.08;2.42;;;;;;;10.35;83.84;99977.23;4184954;83;21093;-84
2022/07/18 02:46:48;;;;;;;4.47;3.12;;;;;;;10.42;84.26;99986.42;4203629;83;21416;-82
2022/07/18 02:52:51;;;;;;;3.52;2.27;;;;;;;10.45;84.52;99989.83;4186098;83;20997;-82
2022/07/18 02:58:54;;;;;;;5.72;3.25;;;;;;;10.55;84.50;99985.22;4190576;83;21038;-82
2022/07/18 03:04:55;;;;;;;7.45;2.75;;;;;;;10.57;84.45;99991.12;4207107;83;21126;-82
2022/07/18 03:10:57;;;;;;;3.52;1.95;;;;;;;10.53;84.43;99985.33;4185991;83;21042;-85
2022/07/18 03:16:59;;;;;;;3.75;2.58;;;;;;;10.53;84.72;99988.88;4188073;83;21500;-82
2022/07/18 03:23:07;;;;;;;4.85;2.70;;;;;;;10.59;84.76;100001.72;4197134;83;20989;-82
2022/07/18 03:29:11;;;;;;;5.62;2.65;;;;;;;10.58;84.74;99998.20;4076935;85;21104;-83
2022/07/18 03:35:18;;;;;;;7.00;2.52;;;;;;;10.47;84.81;100010.81;4017781;87;21552;-83
2022/07/18 03:41:20;;;;;;;5.72;2.90;;;;;;;10.59;85.16;100005.83;4033749;86;21570;-83
2022/07/18 03:47:21;;;;;;;5.15;2.72;;;;;;;10.63;85.11;100015.72;4079065;85;21054;-82
2022/07/18 03:53:26;;;;;;;5.15;2.77;;;;;;;10.67;85.16;100011.72;4094438;85;21106;-81
2022/07/18 03:59:29;;;;;;;5.35;2.65;;;;;;;10.70;85.25;100020.03;4284044;81;21002;-81
2022/07/18 04:05:34;;;;;;;7.53;2.72;;;;;;;10.71;85.29;100033.16;4273835;81;21027;-80
2022/07/18 04:11:38;;;;;;;6.85;3.47;;;;;;;10.61;84.97;100030.92;4278186;81;21086;-80
2022/07/18 04:17:45;;;;;;;6.85;2.70;;;;;;;10.69;85.60;100037.63;4256328;81;21624;-81
2022/07/18 04:23:46;;;;;;;4.95;2.72;;;;;;;10.76;85.48;100040.53;4281994;81;20967;-81
2022/07/18 04:29:53;;;;;;;5.22;2.72;;;;;;;10.86;85.72;100041.41;4274409;81;21028;-81
2022/07/18 04:35:56;;;;;;;5.03;3.42;;;;;;;11.02;85.84;100038.68;4279946;81;21042;-81
2022/07/18 04:42:01;;;;;;;5.55;2.90;;;;;;;11.16;85.81;100038.23;4289029;82;21015;-80
2022/07/18 04:48:08;;;;;;;9.90;3.80;;;;;;;11.27;85.93;100044.78;4299695;81;21971;-81
2022/07/18 04:54:14;;;;;;;13.43;6.25;;;;;;;11.41;86.09;100047.87;4275392;81;20998;-81
2022/07/18 05:00:23;;;;;;;9.55;5.67;;;;;;;11.56;86.09;100049.22;4276439;81;21598;-82
2022/07/18 05:06:26;;;;;;;11.03;4.50;;;;;;;11.69;86.31;100045.27;4283254;81;21057;-81
2022/07/18 05:12:29;;;;;;;10.30;4.65;;;;;;;11.88;86.42;100034.91;4279374;81;21034;-82
2022/07/18 05:18:39;;;;;;;10.95;5.22;;;;;;;12.06;86.47;100043.73;4278475;81;21002;-82
2022/07/18 05:24:49;;;;;;;9.73;5.17;;;;;;;12.20;86.42;100037.77;4201184;83;21062;-83
2022/07/18 05:30:54;;;;;;;10.98;4.72;;;;;;;12.36;86.37;100028.87;4136099;84;21006;-83
2022/07/18 05:37:10;;;;;;;11.13;3.73;;;;;;;12.60;86.48;100021.14;4137037;85;21488;-83
2022/07/18 05:43:17;;;;;;;8.53;3.85;;;;;;;12.88;86.43;100026.36;4212948;83;21011;-85
2022/07/18 05:49:23;;;;;;;6.35;3.30;;;;;;;13.12;86.34;100014.23;4211571;83;21101;-83
2022/07/18 05:55:26;;;;;;;7.35;2.95;;;;;;;13.30;85.92;100012.56;4173587;83;21022;-84
2022/07/18 06:01:32;;;;;;;8.00;3.00;;;;;;;13.47;85.86;100016.98;4198413;83;21015;-85
2022/07/18 06:07:41;;;;;;;6.12;2.77;;;;;;;13.65;85.86;100009.80;4113617;85;21050;-84
2022/07/18 06:13:50;;;;;;;6.05;2.87;;;;;;;13.88;85.83;100014.65;4165052;84;21967;-83
2022/07/18 06:19:52;;;;;;;12.23;3.27;;;;;;;14.13;85.69;100002.02;4176039;83;21069;-83
2022/07/18 06:25:53;;;;;;;6.40;3.65;;;;;;;14.43;85.71;100008.09;4197176;83;21131;-83
2022/07/18 06:31:54;;;;;;;6.35;2.95;;;;;;;14.74;85.29;100005.69;4202843;83;21562;-84
2022/07/18 06:37:59;;;;;;;4.58;2.33;;;;;;;15.08;84.70;100002.29;4215760;83;21047;-84
2022/07/18 06:44:06;;;;;;;5.05;2.10;;;;;;;15.38;83.62;100003.75;4218037;83;21078;-84
2022/07/18 06:50:16;;;;;;;4.55;2.00;;;;;;;15.68;82.99;100007.70;4118217;84;21118;-83
2022/07/18 06:56:17;;;;;;;4.22;2.22;;;;;;;15.99;82.77;100002.95;4107588;85;21680;-84
2022/07/18 07:02:29;;;;;;;4.42;1.92;;;;;;;16.53;82.31;99997.89;4105566;85;21031;-84
2022/07/18 07:08:30;;;;;;;5.03;1.72;;;;;;;17.36;81.74;100006.70;4196191;83;21738;-84
2022/07/18 07:14:31;;;;;;;6.10;2.12;;;;;;;18.15;80.96;100003.61;4218940;83;21063;-85
2022/07/18 07:20:35;;;;;;;3.60;1.77;;;;;;;18.88;79.57;99998.14;4212169;83;22047;-85
2022/07/18 07:26:38;;;;;;;3.25;1.85;;;;;;;19.55;78.30;99997.84;4168219;83;21133;-86
2022/07/18 07:32:45;;;;;;;2.77;1.50;;;;;;;20.23;77.33;99995.16;4075858;85;21087;-84
2022/07/18 07:38:55;;;;;;;5.58;1.80;;;;;;;20.79;75.52;99995.21;4079085;85;20997;-85
2022/07/18 07:45:05;;;;;;;6.22;1.62;;;;;;;21.10;74.23;100006.50;4068733;85;21016;-86
2022/07/18 07:51:11;;;;;;;4.83;2.00;;;;;;;21.46;73.01;100004.72;4247763;81;21062;-85
2022/07/18 07:57:13;;;;;;;5.97;2.17;;;;;;;21.87;71.25;100001.62;4279557;81;21117;-85
2022/07/18 08:03:17;;;;;;;5.80;2.25;;;;;;;;;;4286373;81;21030;-84
2022/07/18 08:09:18;;;;;;;4.28;1.52;;;;;;;22.18;68.40;100004.41;4282029;81;21531;-85
2022/07/18 08:21:52;;;;;;;5.22;1.80;;;;;;;22.05;65.46;100006.87;4007421;87;21093;-85
2022/07/18 08:28:03;;;;;;;3.27;1.40;;;;;;;22.06;64.12;100000.88;4011372;87;21034;-84
2022/07/18 08:34:08;;;;;;;5.97;1.70;;;;;;;22.11;63.15;99994.80;3984607;87;21110;-85
2022/07/18 08:40:17;;;;;;;8.70;1.67;;;;;;;22.31;62.23;99986.42;3960091;87;21025;-84
2022/07/18 08:46:30;;;;;;;3.25;1.22;;;;;;;22.49;61.23;99984.83;3999811;87;21080;-84
2022/07/18 08:52:35;;;;;;;2.77;1.35;;;;;;;22.37;59.36;99972.94;3982665;87;21058;-84
2022/07/18 08:58:40;;;;;;;3.70;1.50;;;;;;;22.45;59.06;99972.97;3971263;88;21682;-85
2022/07/18 09:11:12;;;;;;;4.00;1.53;;;;;;;22.34;57.63;99969.62;3780378;89;4300198;-85
2022/07/18 09:17:30;;;;;;;2.77;1.32;;;;;;;22.43;57.05;99968.42;3844802;90;21578;-85
2022/07/18 09:23:41;;;;;;;2.65;1.00;;;;;;;22.64;56.13;99962.42;3898438;90;21189;-84
2022/07/18 09:30:15;;;;;;;3.37;1.10;;;;;;;22.93;55.33;99965.32;3901503;90;21968;-85
2022/07/18 09:36:18;;;;;;;5.58;1.75;;;;;;;23.28;54.52;99967.30;3898170;90;21551;-85
2022/07/18 09:42:19;;;;;;;5.40;1.55;;;;;;;23.51;52.78;99971.29;3900535;90;21024;-86
2022/07/18 09:48:24;;;;;;;2.83;1.30;;;;;;;23.90;52.62;99973.83;3894658;90;21085;-85
2022/07/18 09:54:46;;;;;;;2.37;1.15;;;;;;;24.28;51.56;99960.80;3859120;90;21072;-85
2022/07/18 10:00:51;;;;;;;3.30;1.20;;;;;;;24.53;49.32;99965.05;3902513;90;21568;-86
2022/07/18 10:07:05;;;;;;;2.10;1.15;;;;;;;24.89;50.15;99962.56;3793961;92;21638;-86
2022/07/18 10:13:13;;;;;;;5.58;1.45;;;;;;;25.33;50.02;99955.33;3826968;92;21009;-84
2022/07/18 10:19:32;;;;;;;2.80;0.98;;;;;;;25.65;49.35;99953.61;3820794;92;21128;-85
2022/07/18 10:25:41;;;;;;;5.08;1.47;;;;;;;25.79;47.78;99958.71;3800897;92;21148;-85
2022/07/18 10:32:08;;;;;;;3.52;1.20;;;;;;;26.08;46.86;99952.90;3822652;93;21593;-85
2022/07/18 10:38:23;;;;;;;2.70;1.27;;;;;;;26.29;46.43;99953.52;3806010;93;21021;-85
2022/07/18 10:44:36;;;;;;;2.92;0.95;;;;;;;26.41;45.76;99947.04;3814481;92;21080;-85
2022/07/18 10:51:05;;;;;;;2.67;1.30;;;;;;;26.58;44.89;99939.95;3821970;92;21123;-84
2022/07/18 10:57:16;;;;;;;2.45;1.37;;;;;;;26.72;44.13;99938.02;3795557;92;21549;-85
2022/07/18 11:03:26;;;;;;;4.90;1.37;;;;;;;26.92;43.97;99939.05;3820646;92;21054;-85
2022/07/18 11:09:48;;;;;;;6.40;1.72;;;;;;;27.26;43.76;99925.60;3820698;92;21696;-84
2022/07/18 11:16:13;;;;;;;2.72;1.20;;;;;;;27.64;43.03;99914.69;3820958;92;21137;-84
2022/07/18 11:22:17;;;;;;;3.70;1.67;;;;;;;28.07;42.67;99915.63;3815804;93;21054;-84
2022/07/18 11:28:19;;;;;;;6.55;2.02;;;;;;;28.58;42.18;99905.98;3809442;92;21117;-85
2022/07/18 11:34:26;;;;;;;3.40;1.42;;;;;;;28.90;41.46;99901.00;3811395;92;21105;-84
2022/07/18 11:40:32;;;;;;;4.42;1.40;;;;;;;28.96;41.23;99896.26;3797543;92;21973;-83
2022/07/18 11:46:33;;;;;;;4.47;1.72;;;;;;;29.20;38.44;99874.38;3786542;92;21155;-85
2022/07/18 11:52:40;;;;;;;4.58;1.57;;;;;;;28.52;39.59;99898.02;3812550;91;21450;-84
2022/07/18 11:58:46;;;;;;;4.00;1.80;;;;;;;28.51;39.60;99890.05;3819435;92;21053;-85
2022/07/18 12:04:47;;;;;;;4.08;1.50;;;;;;;28.59;39.23;99881.41;3814316;92;21403;-85
2022/07/18 12:11:28;;;;;;;3.47;1.60;;;;;;;28.35;38.87;99881.31;3818554;92;21142;-84
2022/07/18 12:17:44;;;;;;;4.37;1.57;;;;;;;27.87;37.74;99880.93;3813637;92;22200;-85
2022/07/18 12:23:47;;;;;;;4.15;1.80;;;;;;;27.23;38.22;99863.87;3816015;92;21188;-84
2022/07/18 12:30:20;;;;;;;3.55;1.55;;;;;;;26.91;38.17;99874.25;3790443;92;21179;-84
2022/07/18 12:36:22;;;;;;;3.90;1.67;;;;;;;26.44;37.95;99874.53;3811860;92;21129;-84
2022/07/18 12:42:36;;;;;;;2.37;1.42;;;;;;;26.14;38.44;99862.67;3771241;92;21083;-84
2022/07/18 12:48:45;;;;;;;4.15;1.95;;;;;;;26.03;38.44;99862.30;3763496;93;21080;-85
2022/07/18 12:55:01;;;;;;;4.75;1.40;;;;;;;25.86;38.48;99851.09;3951713;87;4519618;-86
2022/07/18 13:01:07;;;;;;;4.67;1.42;;;;;;;25.81;38.60;99841.87;4012006;87;21867;-85
2022/07/18 13:07:13;;;;;;;3.47;1.55;;;;;;;25.64;38.90;99840.50;4027766;87;21163;-84
2022/07/18 13:13:23;;;;;;;2.73;1.30;;;;;;;25.45;39.60;99836.78;4016968;86;21603;-84
2022/07/18 13:19:27;;;;;;;2.60;1.47;;;;;;;25.32;39.96;99825.44;4022538;87;20974;-84
2022/07/18 13:25:39;;;;;;;4.45;1.57;;;;;;;25.20;39.28;99814.44;4011376;87;21046;-84
2022/07/18 13:31:45;;;;;;;3.95;1.70;;;;;;;25.15;39.23;99819.84;4049794;86;21088;-85
2022/07/18 13:37:47;;;;;;;3.70;1.32;;;;;;;25.14;39.53;99819.05;4041297;86;21092;-85
2022/07/18 13:43:52;;;;;;;3.35;1.55;;;;;;;25.13;40.24;99818.11;4024581;86;21042;-84
2022/07/18 13:49:53;;;;;;;1.82;1.22;;;;;;;24.97;39.53;99819.05;4039127;86;21008;-85
2022/07/18 13:56:00;;;;;;;4.00;1.65;;;;;;;24.88;39.91;99815.38;4066649;85;33767;-84
2022/07/18 14:02:10;;;;;;;2.37;1.20;;;;;;;24.81;40.20;99808.63;4040951;87;21707;-85
2022/07/18 14:08:18;;;;;;;3.67;1.67;;;;;;;24.78;40.98;99805.31;4016188;87;21106;-85
2022/07/18 14:14:22;;;;;;;3.50;1.60;;;;;;;24.77;41.47;99799.55;4002634;88;21095;-86
2022/07/18 14:20:28;;;;;;;3.62;1.52;;;;;;;24.88;41.41;99795.17;4008291;88;21067;-85
2022/07/18 14:26:37;;;;;;;5.22;1.30;;;;;;;24.90;41.83;99791.27;3983354;88;21600;-85
2022/07/18 14:32:43;;;;;;;4.83;1.60;;;;;;;24.86;42.63;99784.23;3974261;88;21212;-84
2022/07/18 14:38:49;;;;;;;4.28;1.90;;;;;;;24.68;42.43;99784.22;4009723;88;21124;-84
2022/07/18 14:45:00;;;;;;;5.87;1.50;;;;;;;24.58;42.56;99779.75;3999731;88;21111;-84
2022/07/18 14:51:12;;;;;;;2.37;1.42;;;;;;;24.39;42.62;99775.78;3985506;86;21042;-84
2022/07/18 14:57:23;;;;;;;2.75;1.60;;;;;;;24.26;42.63;99774.39;3929428;88;21460;-83
2022/07/18 15:03:34;;;;;;;3.22;1.47;;;;;;;24.27;42.93;99768.19;3983145;88;21092;-84
2022/07/18 15:09:37;;;;;;;4.35;1.57;;;;;;;24.28;42.99;99763.55;3963124;88;21051;-83
2022/07/18 15:15:38;;;;;;;1.92;1.30;;;;;;;24.25;42.76;99764.45;3958998;88;21160;-84
2022/07/18 15:21:39;;;;;;;4.45;2.02;;;;;;;24.25;42.71;99763.05;3968339;88;21058;-85
2022/07/18 15:27:45;;;;;;;3.40;1.50;;;;;;;24.25;43.25;99758.06;3958078;88;21445;-85
2022/07/18 15:33:56;;;;;;;5.33;1.57;;;;;;;24.24;43.40;99752.31;3955130;88;21126;-84
2022/07/18 15:40:02;;;;;;;4.70;1.60;;;;;;;24.19;43.92;99749.45;3975712;88;21041;-83
2022/07/18 15:46:05;;;;;;;4.58;1.82;;;;;;;24.12;44.13;99744.69;3982864;88;21382;-84
2022/07/18 15:52:20;;;;;;;4.45;1.55;;;;;;;24.06;44.22;99743.08;3980517;86;22057;-85
2022/07/18 15:58:29;;;;;;;3.27;1.85;;;;;;;24.07;43.92;99736.24;4002539;88;21003;-84
2022/07/18 16:04:34;;;;;;;2.52;1.40;;;;;;;24.05;44.08;99740.73;4011438;86;21051;-84
2022/07/18 16:10:49;;;;;;;3.65;1.52;;;;;;;23.91;44.66;99740.54;3962537;88;21124;-84
2022/07/18 16:16:56;;;;;;;4.30;1.65;;;;;;;23.79;44.91;99736.34;4009832;87;21068;-84
2022/07/18 16:23:10;;;;;;;3.42;1.57;;;;;;;23.77;44.50;99724.81;3984530;88;21123;-85
2022/07/18 16:29:21;;;;;;;3.30;1.70;;;;;;;23.58;44.72;99723.78;4007931;88;21044;-84
2022/07/18 16:35:30;;;;;;;6.75;1.67;;;;;;;23.54;44.56;99725.13;3947641;88;21501;-84
2022/07/18 16:41:37;;;;;;;4.58;2.00;;;;;;;23.48;44.79;99726.87;3862252;91;21045;-85
2022/07/18 16:47:40;;;;;;;4.25;1.47;;;;;;;23.38;44.62;99725.98;3990548;88;21074;-85
2022/07/18 16:53:44;;;;;;;3.37;1.98;;;;;;;23.28;44.76;99725.67;4007406;88;21016;-84
2022/07/18 16:59:53;;;;;;;4.50;1.72;;;;;;;23.21;45.34;99715.45;4000913;88;21419;-85
2022/07/18 17:06:10;;;;;;;2.67;1.30;;;;;;;23.15;45.36;99704.66;3964385;89;21104;-84
2022/07/18 17:12:20;;;;;;;;;;;;;;;23.11;45.14;99703.98;3992871;88;21342;-84
2022/07/18 17:18:32;;;;;;;4.45;1.67;;;;;;;23.04;45.05;99707.56;3966212;89;20477;-84
2022/07/18 17:24:47;;;;;;;3.77;1.50;;;;;;;22.97;45.31;99707.14;3963824;89;21008;-84
2022/07/18 17:30:52;;;;;;;3.87;1.75;;;;;;;22.89;45.48;99701.61;4042933;87;20996;-85
2022/07/18 17:36:55;;;;;;;3.37;1.20;;;;;;;22.79;45.82;99712.44;3990073;87;21049;-84
2022/07/18 17:43:10;;;;;;;7.05;2.42;;;;;;;22.70;45.83;99708.70;3994170;87;21491;-85
2022/07/18 17:49:16;;;;;;;3.93;1.57;;;;;;;22.60;45.88;99702.78;4037507;88;21020;-84
2022/07/18 17:55:22;;;;;;;2.80;1.80;;;;;;;22.51;46.10;99708.18;3998545;87;21155;-85
2022/07/18 18:01:34;;;;;;;4.20;1.95;;;;;;;22.38;46.17;99711.52;4045817;88;21033;-84
2022/07/18 18:07:44;;;;;;;5.50;1.90;;;;;;;22.24;46.34;99706.30;4047836;88;21111;-85
2022/07/18 18:13:51;;;;;;;15.20;8.83;;;;;;;22.01;46.51;99706.45;3927720;89;21639;-84
2022/07/18 18:19:59;;;;;;;13.68;7.30;;;;;;;21.78;47.65;99708.79;3909588;89;21067;-84
2022/07/18 18:26:07;;;;;;;4.15;2.37;;;;;;;21.57;48.14;99704.44;3988085;89;21127;-85
2022/07/18 18:32:10;;;;;;;5.90;2.40;;;;;;;21.36;48.95;99702.10;3962386;89;21619;-84
2022/07/18 18:38:18;;;;;;;4.42;2.45;;;;;;;21.14;49.59;99698.19;3966182;89;21074;-85
2022/07/18 18:44:26;;;;;;;5.75;3.15;;;;;;;20.85;50.38;99713.86;3884039;91;21022;-84
2022/07/18 18:50:30;;;;;;;10.48;3.95;;;;;;;20.57;51.30;99717.76;3927643;87;21111;-84
2022/07/18 18:56:32;;;;;;;9.48;4.35;;;;;;;20.29;52.06;99723.80;3881352;90;22079;-85
2022/07/18 19:02:39;;;;;;;9.35;3.12;;;;;;;20.06;53.10;99730.88;3886774;90;21038;-85
2022/07/18 19:08:46;;;;;;;7.50;4.33;;;;;;;19.85;53.79;99733.20;3948259;88;21025;-84
2022/07/18 19:14:50;;;;;;;12.05;8.53;;;;;;;19.58;55.08;99732.38;3969811;88;21560;-84
2022/07/18 19:21:00;;;;;;;24.67;15.88;;;;;;;19.23;56.12;99732.20;3996827;88;21663;-84
2022/07/18 19:27:10;;;;;;;21.45;16.65;;;;;;;19.03;56.47;99735.41;3984310;88;21524;-84
2022/07/18 19:33:18;;;;;;;22.90;15.93;;;;;;;18.89;56.98;99745.90;3965318;86;21611;-84
2022/07/18 19:39:20;;;;;;;26.80;18.27;;;;;;;18.65;58.18;99750.48;3924034;89;21043;-84
2022/07/18 19:45:26;;;;;;;26.75;17.85;;;;;;;18.42;58.72;99741.97;4012654;86;21040;-84
2022/07/18 19:51:30;;;;;;;26.55;17.35;;;;;;;18.31;59.21;99745.39;3987337;86;21084;-84
2022/07/18 19:57:31;;;;;;;21.15;13.00;;;;;;;18.17;60.76;99741.34;3977651;87;21087;-85
2022/07/18 20:03:37;;;;;;;20.32;12.82;;;;;;;18.03;61.75;99749.17;4006670;87;21074;-84
2022/07/18 20:09:44;;;;;;;31.15;16.67;;;;;;;17.89;62.33;99741.55;3996747;88;21099;-84
2022/07/18 20:15:52;;;;;;;22.40;14.68;;;;;;;17.74;62.31;99747.80;4004466;87;21098;-84
2022/07/18 20:21:59;;;;;;;23.85;12.90;;;;;;;17.63;63.01;99746.27;4005718;88;21099;-84
2022/07/18 20:28:02;;;;;;;19.02;11.08;;;;;;;17.43;64.14;99737.62;3997329;88;20993;-84
2022/07/18 20:34:04;;;;;;;45.10;27.30;;;;;;;17.27;65.06;99732.37;3992006;88;21481;-83
2022/07/18 20:40:15;;;;;;;30.62;18.42;;;;;;;17.16;65.46;99731.03;4008030;88;21645;-84
2022/07/18 20:46:24;;;;;;;25.65;12.65;;;;;;;16.99;65.99;99727.13;4042437;88;21056;-84
2022/07/18 20:52:25;;;;;;;19.67;9.48;;;;;;;16.79;66.79;99720.47;4019010;86;21029;-84
2022/07/18 20:58:31;;;;;;;12.20;7.03;;;;;;;16.70;67.70;99733.13;3993959;88;21656;-84
2022/07/18 21:04:39;;;;;;;19.73;9.45;;;;;;;16.68;68.56;99736.28;3968483;87;20981;-84
2022/07/18 21:10:44;;;;;;;21.75;10.00;;;;;;;16.64;68.81;99738.28;3960371;88;21069;-83
2022/07/18 21:16:50;;;;;;;14.45;7.65;;;;;;;16.46;69.12;99735.34;3947048;88;21059;-83
2022/07/18 21:22:54;;;;;;;14.58;7.75;;;;;;;16.32;69.59;99741.62;3935047;88;21110;-83
2022/07/18 21:28:57;;;;;;;13.50;7.30;;;;;;;16.16;70.19;99731.55;3966274;88;21081;-83
2022/07/18 21:35:02;;;;;;;15.32;8.20;;;;;;;16.16;70.26;99723.27;3957827;88;21009;-83
2022/07/18 21:41:06;;;;;;;14.25;7.03;;;;;;;16.08;70.75;99723.67;3956607;88;21127;-83
2022/07/18 21:47:22;;;;;;;7.53;5.10;;;;;;;15.96;71.10;99729.59;3950343;88;21115;-83
2022/07/18 21:53:23;;;;;;;13.88;7.17;;;;;;;15.86;71.73;99725.63;4017461;86;21075;-84
2022/07/18 21:59:24;;;;;;;14.28;7.10;;;;;;;15.65;71.97;99715.91;4011971;88;21052;-83
2022/07/18 22:05:26;;;;;;;9.70;5.83;;;;;;;15.51;72.29;99707.60;4003927;88;21095;-84
2022/07/18 22:11:29;;;;;;;13.35;5.45;;;;;;;15.36;73.11;99719.14;4003767;88;21044;-84
2022/07/18 22:17:31;;;;;;;15.60;6.65;;;;;;;15.25;73.60;99714.18;3980521;88;21091;-84
2022/07/18 22:23:32;;;;;;;10.58;6.30;;;;;;;15.16;73.83;99717.89;4009973;87;21702;-83
2022/07/18 22:29:33;;;;;;;15.80;6.47;;;;;;;15.10;73.92;99708.42;4027272;87;21016;-84
2022/07/18 22:35:38;;;;;;;12.95;6.03;;;;;;;15.02;74.36;99711.52;4005329;87;21080;-83
2022/07/18 22:41:39;;;;;;;10.70;5.00;;;;;;;14.92;74.65;99708.94;4001832;87;21036;-84
2022/07/18 22:47:41;;;;;;;13.25;6.03;;;;;;;14.76;75.26;99711.78;4007031;88;21154;-83
2022/07/18 22:53:42;;;;;;;11.12;6.05;;;;;;;14.71;75.72;99709.39;4008489;88;21048;-83
2022/07/18 22:59:46;;;;;;;10.93;6.15;;;;;;;14.70;76.22;99711.37;3994469;88;21139;-83
2022/07/18 23:05:48;;;;;;;12.85;6.25;;;;;;;14.62;76.57;99704.23;4004223;88;21066;-83
2022/07/18 23:11:49;;;;;;;12.13;6.35;;;;;;;14.58;76.91;99705.39;4029302;87;21024;-82
2022/07/18 23:17:51;;;;;;;10.88;5.28;;;;;;;14.58;77.37;99690.23;4008830;87;21023;-83
2022/07/18 23:23:54;;;;;;;13.62;6.05;;;;;;;14.57;77.71;99697.70;4009220;88;21012;-82
2022/07/18 23:29:56;;;;;;;8.78;4.97;;;;;;;14.53;78.05;99703.00;4003428;88;21671;-82
2022/07/18 23:36:02;;;;;;;14.15;5.58;;;;;;;14.53;78.01;99706.55;4004773;88;21075;-83
2022/07/18 23:42:06;;;;;;;13.15;5.97;;;;;;;14.39;78.15;99700.95;3997553;88;21550;-83
2022/07/18 23:48:12;;;;;;;10.82;6.10;;;;;;;14.26;78.57;99707.12;4006460;88;22072;-84
2022/07/18 23:54:15;;;;;;;11.78;5.90;;;;;;;14.18;78.67;99697.99;4009804;88;22011;-84
